This is the latest recevied weather packets stored in our database for station/object VE3MJM-WX. If no packets are shown the sender has not sent any weather packets the latest 10 day(s).
| Time | Temp. | Humidity | Pressure | Rain* | Wind** | Luminosity | Snow |
|---|---|---|---|---|---|---|---|
| 1777590349 | 6.11° C | 63% | 1007.6 hPa | 0 mm | - | - | - |
| 1777589446 | 6.11° C | 62% | 1007.7 hPa | 0 mm | - | - | - |
| 1777588544 | 6.11° C | 64% | 1007.7 hPa | 0 mm | - | - | - |
| 1777587641 | 6.67° C | 64% | 1007.7 hPa | 0 mm | - | - | - |
| 1777586739 | 7.22° C | 63% | 1007.5 hPa | 0 mm | - | - | - |
| 1777585836 | 7.78° C | 61% | 1007.2 hPa | 0 mm | - | - | - |
| 1777584933 | 8.89° C | 60% | 1006.6 hPa | 0 mm | - | - | - |
| 1777584031 | 9.44° C | 52% | 1006.4 hPa | 0 mm | - | - | - |
| 1777583128 | 9.44° C | 51% | 1006.3 hPa | 0 mm | - | - | - |
| 1777582226 | 9.44° C | 51% | 1006.5 hPa | 0 mm | - | - | - |
| 1777581323 | 9.44° C | 49% | 1006.3 hPa | 0 mm | - | - | - |
| 1777580421 | 10° C | 49% | 1006.1 hPa | 0 mm | - | - | - |
| 1777579518 | 9.44° C | 53% | 1006.2 hPa | 0 mm | - | - | - |
| 1777578616 | 9.44° C | 53% | 1006 hPa | 0 mm | - | - | - |
| 1777577713 | 9.44° C | 53% | 1006.3 hPa | 0 mm | - | - | - |
| 1777576810 | 9.44° C | 58% | 1006.1 hPa | 0 mm | - | - | - |
| 1777575908 | 10° C | 57% | 1006.3 hPa | 0 mm | - | - | - |
| 1777575005 | 9.44° C | 56% | 1006.6 hPa | 0 mm | - | - | - |
| 1777574103 | 9.44° C | 57% | 1006.5 hPa | 0 mm | - | - | - |
| 1777573200 | 9.44° C | 60% | 1006.8 hPa | 0 mm | - | - | - |
| 1777572298 | 7.78° C | 62% | 1006.8 hPa | 0 mm | - | - | - |
| 1777571395 | 7.78° C | 66% | 1006.8 hPa | 0 mm | - | - | - |
| 1777570493 | 7.78° C | 65% | 1006.9 hPa | 0 mm | - | - | - |
| 1777569590 | 8.33° C | 63% | 1006.8 hPa | 0 mm | - | - | - |
| 1777568688 | 7.78° C | 65% | 1007 hPa | 0 mm | - | - | - |
* Rain latest hour (hover to see other rain measurements)
** Current wind speed in m/s (hover to see current wind gust speed)